createdAt,value
2023-04-15T00:02:19.643Z,101139.72
2023-04-15T00:04:47.996Z,101124.84
2023-04-15T00:07:16.361Z,101129.81
2023-04-15T00:09:44.652Z,101133.13
2023-04-15T00:12:12.503Z,101133.13
2023-04-15T00:14:40.240Z,101132.47
2023-04-15T00:17:08.141Z,101130.66
2023-04-15T00:19:37.481Z,101129.31
2023-04-15T00:22:07.066Z,101136.59
2023-04-15T00:24:34.658Z,101133.44
2023-04-15T00:27:02.321Z,101129.50
2023-04-15T00:29:30.459Z,101117.06
2023-04-15T00:31:59.455Z,101123.03
2023-04-15T00:34:28.838Z,101125.50
2023-04-15T00:36:58.303Z,101128.16
2023-04-15T00:39:25.956Z,101118.06
2023-04-15T00:41:54.439Z,101119.38
2023-04-15T00:44:22.025Z,101129.97
2023-04-15T00:46:52.946Z,101123.22
2023-04-15T00:49:20.914Z,101117.06
2023-04-15T00:51:49.115Z,101125.34
2023-04-15T00:54:18.270Z,101109.78
2023-04-15T00:56:46.196Z,101114.25
2023-04-15T00:59:15.637Z,101114.44
2023-04-15T01:01:45.330Z,101116.25
2023-04-15T01:04:13.330Z,101110.75
2023-04-15T01:06:41.150Z,101116.91
2023-04-15T01:09:08.794Z,101114.44
2023-04-15T01:11:37.757Z,101107.31
2023-04-15T01:14:05.945Z,101109.59
2023-04-15T01:16:33.597Z,101109.78
2023-04-15T01:19:01.656Z,101097.34
2023-04-15T01:21:30.001Z,101099.81
2023-04-15T01:23:58.529Z,101096.84
2023-04-15T01:26:28.284Z,101086.25
2023-04-15T01:28:56.375Z,101090.56
2023-04-15T01:31:24.167Z,101087.91
2023-04-15T01:33:51.920Z,101085.25
2023-04-15T01:36:19.581Z,101085.78
2023-04-15T01:38:47.629Z,101092.88
2023-04-15T01:41:15.510Z,101085.09
2023-04-15T01:43:44.460Z,101090.38
2023-04-15T01:46:12.777Z,101082.28
2023-04-15T01:48:40.439Z,101078.81
2023-04-15T01:51:08.226Z,101082.28
2023-04-15T01:53:35.935Z,101084.59
2023-04-15T01:56:03.677Z,101080.28
2023-04-15T01:58:31.427Z,101080.63
2023-04-15T02:01:00.664Z,101084.94
2023-04-15T02:03:29.164Z,101087.25
2023-04-15T02:05:57.604Z,101079.31
2023-04-15T02:08:25.237Z,101081.78
2023-04-15T02:10:53.238Z,101085.25
2023-04-15T02:13:20.965Z,101086.44
2023-04-15T02:15:49.892Z,101083.44
2023-04-15T02:18:18.926Z,101087.91
2023-04-15T02:20:47.148Z,101082.09
2023-04-15T02:23:15.186Z,101080.94
2023-04-15T02:25:42.828Z,101078.97
2023-04-15T02:28:21.266Z,101073.81
2023-04-15T02:30:50.910Z,101095.88
2023-04-15T02:33:20.213Z,101084.09
2023-04-15T02:35:47.793Z,101093.06
2023-04-15T02:38:17.153Z,101091.06
2023-04-15T02:40:44.878Z,101085.13
2023-04-15T02:43:12.477Z,101094.06
2023-04-15T02:45:40.475Z,101096.03
2023-04-15T02:48:08.115Z,101102.66
2023-04-15T02:50:38.791Z,101100.38
2023-04-15T02:53:06.533Z,101104.50
2023-04-15T02:55:34.478Z,101107.81
2023-04-15T02:58:02.071Z,101104.81
2023-04-15T03:00:29.663Z,101107.81
2023-04-15T03:03:00.776Z,101119.56
2023-04-15T03:05:28.814Z,101111.81
2023-04-15T03:07:57.882Z,101118.09
2023-04-15T03:10:25.498Z,101119.44
2023-04-15T03:12:53.135Z,101119.91
2023-04-15T03:15:21.194Z,101109.28
2023-04-15T03:17:49.450Z,101114.28
2023-04-15T03:20:17.692Z,101108.63
2023-04-15T03:22:45.388Z,101108.31
2023-04-15T03:25:14.537Z,101101.69
2023-04-15T03:27:42.679Z,101104.84
2023-04-15T03:30:11.238Z,101094.56
2023-04-15T03:32:38.950Z,101092.56
2023-04-15T03:35:07.470Z,101096.72
2023-04-15T03:37:35.070Z,101089.59
2023-04-15T03:40:03.073Z,101088.41
2023-04-15T03:42:32.166Z,101088.59
2023-04-15T03:45:00.705Z,101093.56
2023-04-15T03:47:28.371Z,101097.03
2023-04-15T03:49:56.012Z,101097.88
2023-04-15T03:52:23.638Z,101095.53
2023-04-15T03:54:51.444Z,101090.91
2023-04-15T03:57:18.997Z,101096.38
2023-04-15T03:59:47.999Z,101106.16
2023-04-15T04:02:15.644Z,101109.13
2023-04-15T04:04:43.877Z,101095.72
2023-04-15T04:07:16.656Z,101098.38
2023-04-15T04:09:46.158Z,101112.94
2023-04-15T04:12:14.915Z,101098.88
2023-04-15T04:14:42.643Z,101108.16
2023-04-15T04:17:11.867Z,101101.88
2023-04-15T04:19:39.513Z,101102.66
2023-04-15T04:22:07.373Z,101110.97
2023-04-15T04:24:35.030Z,101109.16
2023-04-15T04:27:02.705Z,101102.00
2023-04-15T04:29:30.683Z,101106.66
2023-04-15T04:31:58.416Z,101112.78
2023-04-15T04:34:27.405Z,101119.78
2023-04-15T04:36:55.096Z,101103.16
2023-04-15T04:39:23.238Z,101118.25
2023-04-15T04:41:52.112Z,101104.00
2023-04-15T04:44:20.240Z,101119.09
2023-04-15T04:46:47.957Z,101098.88
2023-04-15T04:49:15.566Z,101107.50
2023-04-15T04:51:45.244Z,101127.22
2023-04-15T04:54:12.885Z,101111.13
2023-04-15T04:56:40.973Z,101105.81
2023-04-15T04:59:09.509Z,101109.63
2023-04-15T05:01:37.547Z,101116.75
2023-04-15T05:04:06.204Z,101106.50
2023-04-15T05:06:33.984Z,101100.50
2023-04-15T05:09:03.460Z,101106.84
2023-04-15T05:11:31.401Z,101108.31
2023-04-15T05:13:59.760Z,101100.19
2023-04-15T05:16:27.385Z,101100.03
2023-04-15T05:18:55.132Z,101105.16
2023-04-15T05:21:22.919Z,101102.50
2023-04-15T05:23:50.940Z,101107.81
2023-04-15T05:26:20.068Z,101105.00
2023-04-15T05:28:47.927Z,101095.88
2023-04-15T05:31:15.668Z,101108.50
2023-04-15T05:33:43.448Z,101100.16
2023-04-15T05:36:12.097Z,101114.59
2023-04-15T05:38:39.718Z,101120.09
2023-04-15T05:41:07.482Z,101112.44
2023-04-15T05:43:36.533Z,101122.22
2023-04-15T05:46:04.213Z,101108.81
2023-04-15T05:48:31.909Z,101121.06
2023-04-15T05:50:59.642Z,101116.25
2023-04-15T05:53:27.251Z,101116.75
2023-04-15T05:55:54.831Z,101128.69
2023-04-15T05:58:22.582Z,101120.91
2023-04-15T06:00:52.211Z,101122.56
2023-04-15T06:03:19.996Z,101123.41
2023-04-15T06:05:48.314Z,101126.03
2023-04-15T06:08:15.998Z,101119.41
2023-04-15T06:10:43.755Z,101125.88
2023-04-15T06:13:11.349Z,101150.25
2023-04-15T06:15:39.009Z,101131.84
2023-04-15T06:18:07.974Z,101152.25
2023-04-15T06:20:36.646Z,101141.59
2023-04-15T06:23:04.271Z,101141.59
2023-04-15T06:25:31.986Z,101153.22
2023-04-15T06:27:59.620Z,101146.72
2023-04-15T06:30:27.341Z,101154.53
2023-04-15T06:32:56.374Z,101159.53
2023-04-15T06:35:25.399Z,101163.81
2023-04-15T06:37:52.960Z,101168.78
2023-04-15T06:40:20.545Z,101153.88
2023-04-15T06:42:48.163Z,101160.31
2023-04-15T06:45:15.931Z,101182.56
2023-04-15T06:47:43.574Z,101175.59
2023-04-15T06:50:11.726Z,101181.56
2023-04-15T06:52:40.955Z,101175.59
2023-04-15T06:55:09.977Z,101177.91
2023-04-15T06:57:37.551Z,101170.78
2023-04-15T07:00:05.881Z,101183.22
2023-04-15T07:02:33.607Z,101189.34
2023-04-15T07:05:01.673Z,101177.03
2023-04-15T07:07:29.338Z,101179.88
2023-04-15T07:09:58.327Z,101184.34
2023-04-15T07:12:26.081Z,101196.28
2023-04-15T07:14:53.672Z,101215.72
2023-04-15T07:17:21.542Z,101210.06
2023-04-15T07:19:49.279Z,101213.22
2023-04-15T07:22:16.873Z,101212.22
2023-04-15T07:24:44.507Z,101214.69
2023-04-15T07:27:13.545Z,101218.03
2023-04-15T07:29:41.388Z,101217.88
2023-04-15T07:32:10.453Z,101211.75
2023-04-15T07:34:38.578Z,101224.03
2023-04-15T07:37:06.173Z,101215.22
2023-04-15T07:39:33.764Z,101220.84
2023-04-15T07:42:02.107Z,101229.34
2023-04-15T07:44:31.637Z,101231.16
2023-04-15T07:46:59.377Z,101230.84
2023-04-15T07:49:26.987Z,101234.31
2023-04-15T07:51:54.871Z,101239.44
2023-04-15T07:54:22.455Z,101226.16
2023-04-15T07:56:50.554Z,101226.00
2023-04-15T07:59:18.859Z,101235.09
2023-04-15T08:01:48.242Z,101238.44
2023-04-15T08:04:16.142Z,101231.59
2023-04-15T08:06:43.996Z,101241.41
2023-04-15T08:09:11.871Z,101245.22
2023-04-15T08:11:39.489Z,101243.22
2023-04-15T08:14:07.124Z,101240.41
2023-04-15T08:16:35.098Z,101248.69
2023-04-15T08:19:04.690Z,101238.88
2023-04-15T08:21:32.742Z,101245.19
2023-04-15T08:24:01.684Z,101251.66
2023-04-15T08:26:29.341Z,101258.25
2023-04-15T08:28:57.423Z,101241.31
2023-04-15T08:31:25.320Z,101242.13
2023-04-15T08:33:54.489Z,101245.06
2023-04-15T08:36:23.500Z,101241.41
2023-04-15T08:38:51.193Z,101249.88
2023-04-15T08:41:23.694Z,101249.09
2023-04-15T08:43:55.525Z,101240.34
2023-04-15T08:46:23.721Z,101243.19
2023-04-15T08:48:52.217Z,101239.03
2023-04-15T08:51:20.265Z,101248.34
2023-04-15T08:53:50.806Z,101254.16
2023-04-15T08:56:20.244Z,101250.38
2023-04-15T08:58:48.828Z,101252.53
2023-04-15T09:01:16.952Z,101259.97
2023-04-15T09:03:45.664Z,101259.13
2023-04-15T09:06:13.767Z,101273.63
2023-04-15T09:08:41.362Z,101266.00
2023-04-15T09:11:10.377Z,101269.78
2023-04-15T09:13:38.154Z,101272.28
2023-04-15T09:16:08.381Z,101270.41
2023-04-15T09:18:38.129Z,101295.13
2023-04-15T09:21:09.380Z,101269.50
2023-04-15T09:23:37.915Z,101279.44
2023-04-15T09:26:06.356Z,101276.25
2023-04-15T09:28:43.055Z,101273.56
2023-04-15T09:31:11.955Z,101288.56
2023-04-15T09:33:56.736Z,101291.28
2023-04-15T09:36:25.154Z,101281.47
2023-04-15T09:38:56.683Z,101277.41
2023-04-15T09:41:25.243Z,101279.16
2023-04-15T09:43:54.330Z,101279.41
2023-04-15T09:46:22.042Z,101291.59
2023-04-15T09:49:08.866Z,101288.75
2023-04-15T09:51:37.387Z,101291.88
2023-04-15T09:54:05.666Z,101304.13
2023-04-15T09:56:36.184Z,101293.75
2023-04-15T09:59:07.106Z,101299.56
2023-04-15T10:01:34.978Z,101298.84
2023-04-15T10:04:05.281Z,101280.38
2023-04-15T10:06:33.485Z,101294.19
2023-04-15T10:09:01.896Z,101298.16
2023-04-15T10:11:31.793Z,101290.88
2023-04-15T10:14:00.521Z,101295.28
2023-04-15T10:16:30.947Z,101292.59
2023-04-15T10:18:59.400Z,101288.81
2023-04-15T10:21:28.931Z,101288.31
2023-04-15T10:23:57.224Z,101301.81
2023-04-15T10:26:25.771Z,101299.88
2023-04-15T10:28:54.401Z,101303.50
2023-04-15T10:31:22.956Z,101308.00
2023-04-15T10:33:52.987Z,101302.69
2023-04-15T10:36:21.379Z,101298.13
2023-04-15T10:38:49.040Z,101300.97
2023-04-15T10:41:20.778Z,101307.28
2023-04-15T10:43:51.256Z,101301.81
2023-04-15T10:46:20.950Z,101303.31
2023-04-15T10:48:50.165Z,101304.38
2023-04-15T10:51:28.039Z,101305.91
2023-04-15T10:53:58.810Z,101302.22
2023-04-15T10:56:26.810Z,101297.72
2023-04-15T10:58:54.515Z,101301.22
2023-04-15T11:01:23.836Z,101299.13
2023-04-15T11:03:52.192Z,101312.94
2023-04-15T11:06:21.405Z,101300.13
2023-04-15T11:09:03.305Z,101319.34
2023-04-15T11:12:08.256Z,101312.13
2023-04-15T11:14:41.547Z,101319.19
2023-04-15T11:17:09.192Z,101314.75
2023-04-15T11:19:38.796Z,101320.38
2023-04-15T11:22:11.748Z,101322.19
2023-04-15T11:24:48.627Z,101318.09
2023-04-15T11:27:22.567Z,101312.59
2023-04-15T11:29:50.230Z,101310.56
2023-04-15T11:32:17.955Z,101316.28
2023-04-15T11:34:48.486Z,101316.50
2023-04-15T11:37:17.475Z,101310.72
2023-04-15T11:39:45.151Z,101323.13
2023-04-15T11:42:18.162Z,101329.94
2023-04-15T11:44:45.901Z,101329.75
2023-04-15T11:47:23.792Z,101340.06
2023-04-15T11:49:51.633Z,101326.66
2023-04-15T11:52:20.673Z,101333.69
2023-04-15T11:54:48.380Z,101336.59
2023-04-15T11:57:16.257Z,101331.00
2023-04-15T11:59:45.964Z,101343.63
2023-04-15T12:02:14.566Z,101334.31
2023-04-15T12:04:42.706Z,101344.88
2023-04-15T12:07:10.857Z,101338.69
2023-04-15T12:09:40.073Z,101337.63
2023-04-15T12:12:07.806Z,101332.69
2023-04-15T12:14:35.513Z,101333.69
2023-04-15T12:17:05.007Z,101339.09
2023-04-15T12:19:37.144Z,101340.78
2023-04-15T12:22:06.553Z,101331.47
2023-04-15T12:24:35.869Z,101354.78
2023-04-15T12:27:06.818Z,101349.19
2023-04-15T12:29:35.899Z,101365.06
2023-04-15T12:32:07.007Z,101347.94
2023-04-15T12:34:36.027Z,101365.66
2023-04-15T12:37:05.271Z,101359.72
2023-04-15T12:39:35.954Z,101378.06
2023-04-15T12:42:05.589Z,101354.53
2023-04-15T12:44:35.696Z,101368.63
2023-04-15T12:47:03.706Z,101365.84
2023-04-15T12:49:32.640Z,101373.22
2023-04-15T12:52:01.494Z,101371.34
2023-04-15T12:54:29.700Z,101384.94
2023-04-15T12:56:57.991Z,101391.53
2023-04-15T12:59:27.055Z,101397.72
2023-04-15T13:01:55.036Z,101403.31
2023-04-15T13:04:23.623Z,101392.34
2023-04-15T13:06:51.381Z,101404.50
2023-04-15T13:09:19.064Z,101402.22
2023-04-15T13:11:46.979Z,101407.22
2023-04-15T13:14:14.757Z,101406.63
2023-04-15T13:16:44.162Z,101414.81
2023-04-15T13:19:11.811Z,101420.34
2023-04-15T13:21:39.527Z,101413.56
2023-04-15T13:24:08.165Z,101421.47
2023-04-15T13:26:36.107Z,101422.50
2023-04-15T13:29:03.893Z,101422.50
2023-04-15T13:31:31.591Z,101420.41
2023-04-15T13:34:00.907Z,101412.19
2023-04-15T13:36:28.626Z,101408.47
2023-04-15T13:38:57.091Z,101403.47
2023-04-15T13:41:24.790Z,101405.66
2023-04-15T13:43:52.419Z,101412.25
2023-04-15T13:46:21.442Z,101418.59
2023-04-15T13:48:49.157Z,101433.16
2023-04-15T13:51:18.093Z,101428.53
2023-04-15T13:53:45.756Z,101432.16
2023-04-15T13:56:13.558Z,101444.31
2023-04-15T13:58:41.928Z,101439.09
2023-04-15T14:01:09.605Z,101446.59
2023-04-15T14:03:37.380Z,101451.91
2023-04-15T14:06:06.122Z,101456.84
2023-04-15T14:08:35.244Z,101461.00
2023-04-15T14:11:02.846Z,101459.75
2023-04-15T14:13:30.431Z,101452.97
2023-04-15T14:15:58.226Z,101452.41
2023-04-15T14:18:26.210Z,101462.06
2023-04-15T14:20:54.009Z,101461.13
2023-04-15T14:23:21.671Z,101470.94
2023-04-15T14:25:51.711Z,101468.53
2023-04-15T14:28:19.371Z,101492.38
2023-04-15T14:30:47.810Z,101490.50
2023-04-15T14:33:15.617Z,101479.28
2023-04-15T14:35:43.361Z,101492.63
2023-04-15T14:38:11.517Z,101484.38
2023-04-15T14:40:39.404Z,101498.78
2023-04-15T14:43:08.428Z,101499.72
2023-04-15T14:45:36.373Z,101524.13
2023-04-15T14:48:04.622Z,101495.25
2023-04-15T14:50:32.270Z,101492.50
2023-04-15T14:53:00.249Z,101506.22
2023-04-15T14:55:27.926Z,101515.28
2023-04-15T14:57:55.555Z,101510.38
2023-04-15T15:00:24.608Z,101509.28
2023-04-15T15:02:52.283Z,101510.56
2023-04-15T15:05:20.245Z,101519.91
2023-04-15T15:07:48.067Z,101522.09
2023-04-15T15:10:15.755Z,101513.34
2023-04-15T15:12:43.501Z,101515.03
2023-04-15T15:15:25.194Z,101520.97
2023-04-15T15:17:57.883Z,101514.63
2023-04-15T15:20:26.081Z,101524.28
2023-04-15T15:22:53.984Z,101515.03
2023-04-15T15:25:21.871Z,101531.31
2023-04-15T15:27:49.955Z,101533.69
2023-04-15T15:30:17.754Z,101538.78
2023-04-15T15:32:45.770Z,101531.63
2023-04-15T15:35:14.930Z,101539.69
2023-04-15T15:37:43.368Z,101547.25
2023-04-15T15:40:12.357Z,101541.84
2023-04-15T15:42:39.968Z,101550.06
2023-04-15T15:45:08.465Z,101550.75
2023-04-15T15:47:36.281Z,101553.25
2023-04-15T15:50:06.039Z,101566.66
2023-04-15T15:52:35.208Z,101566.44
2023-04-15T15:55:02.892Z,101570.97
2023-04-15T15:57:30.499Z,101570.59
2023-04-15T16:00:10.407Z,101571.41
2023-04-15T16:03:05.132Z,101583.88
2023-04-15T16:05:27.373Z,101591.22
2023-04-15T16:07:56.302Z,101587.72
2023-04-15T16:10:24.333Z,101588.69
2023-04-15T16:12:51.955Z,101593.59
2023-04-15T16:15:19.945Z,101592.13
2023-04-15T16:17:47.737Z,101591.13
2023-04-15T16:20:15.454Z,101603.47
2023-04-15T16:22:43.343Z,101608.66
2023-04-15T16:25:12.384Z,101604.94
2023-04-15T16:27:57.217Z,101618.66
2023-04-15T16:30:27.042Z,101615.59
2023-04-15T16:32:54.758Z,101617.28
2023-04-15T16:35:22.519Z,101622.66
2023-04-15T16:37:50.367Z,101626.84
2023-04-15T16:40:19.631Z,101625.75
2023-04-15T16:42:47.261Z,101634.78
2023-04-15T16:45:14.992Z,101630.22
2023-04-15T16:47:43.385Z,101625.41
2023-04-15T16:50:11.975Z,101635.25
2023-04-15T16:52:39.557Z,101643.03
2023-04-15T16:55:07.772Z,101642.31
2023-04-15T16:57:50.624Z,101649.66
2023-04-15T17:00:24.347Z,101645.91
2023-04-15T17:02:52.248Z,101648.78
2023-04-15T17:05:20.121Z,101659.00
2023-04-15T17:07:47.814Z,101661.41
2023-04-15T17:10:15.503Z,101664.63
2023-04-15T17:12:44.499Z,101670.06
2023-04-15T17:15:12.189Z,101675.31
2023-04-15T17:17:39.912Z,101675.03
2023-04-15T17:20:08.143Z,101691.25
2023-04-15T17:22:35.769Z,101685.63
2023-04-15T17:25:04.588Z,101691.88
2023-04-15T17:27:32.264Z,101691.22
2023-04-15T17:30:01.292Z,101695.28
2023-04-15T17:32:31.759Z,101692.25
2023-04-15T17:34:59.614Z,101696.59
2023-04-15T17:37:27.819Z,101692.09
2023-04-15T17:39:55.420Z,101702.13
2023-04-15T17:42:23.172Z,101697.13
2023-04-15T17:44:50.848Z,101710.91
2023-04-15T17:47:20.322Z,101705.06
2023-04-15T17:49:48.056Z,101714.94
2023-04-15T17:52:15.926Z,101714.94
2023-04-15T17:54:43.656Z,101711.63
2023-04-15T17:57:11.390Z,101719.50
2023-04-15T17:59:43.760Z,101727.66
2023-04-15T18:02:11.613Z,101728.09
2023-04-15T18:04:40.923Z,101726.97
2023-04-15T18:07:08.908Z,101730.63
2023-04-15T18:09:37.134Z,101734.28
2023-04-15T18:12:07.428Z,101742.00
2023-04-15T18:14:35.257Z,101748.34
2023-04-15T18:17:03.397Z,101754.38
2023-04-15T18:19:31.651Z,101766.16
2023-04-15T18:22:00.947Z,101759.50
2023-04-15T18:24:28.888Z,101766.50
2023-04-15T18:26:57.055Z,101771.25
2023-04-15T18:29:25.293Z,101773.09
2023-04-15T18:31:53.126Z,101787.94
2023-04-15T18:34:20.801Z,101784.63
2023-04-15T18:36:48.511Z,101796.31
2023-04-15T18:39:17.480Z,101792.69
2023-04-15T18:41:45.215Z,101805.31
2023-04-15T18:44:12.834Z,101813.66
2023-04-15T18:46:40.890Z,101813.34
2023-04-15T18:49:08.884Z,101813.34
2023-04-15T18:51:36.843Z,101824.22
2023-04-15T18:54:04.596Z,101831.72
2023-04-15T18:56:33.648Z,101835.72
2023-04-15T18:59:09.825Z,101843.38
2023-04-15T19:01:49.429Z,101840.88
2023-04-15T19:04:17.157Z,101837.41
2023-04-15T19:06:45.290Z,101840.06
2023-04-15T19:09:12.875Z,101836.75
2023-04-15T19:11:41.919Z,101843.72
2023-04-15T19:14:09.533Z,101849.38
2023-04-15T19:16:37.244Z,101854.19
2023-04-15T19:19:06.415Z,101855.19
2023-04-15T19:21:34.391Z,101850.22
2023-04-15T19:24:02.221Z,101860.75
2023-04-15T19:26:30.405Z,101845.22
2023-04-15T19:28:59.375Z,101850.41
2023-04-15T19:31:26.965Z,101861.72
2023-04-15T19:33:54.551Z,101874.06
2023-04-15T19:36:22.210Z,101871.53
2023-04-15T19:38:49.827Z,101880.03
2023-04-15T19:41:17.401Z,101880.72
2023-04-15T19:43:45.028Z,101882.88
2023-04-15T19:46:14.136Z,101885.41
2023-04-15T19:48:41.758Z,101882.72
2023-04-15T19:51:09.375Z,101896.53
2023-04-15T19:53:37.188Z,101894.38
2023-04-15T19:56:04.798Z,101894.72
2023-04-15T19:58:32.613Z,101897.72
2023-04-15T20:01:01.364Z,101906.03
2023-04-15T20:03:30.652Z,101912.38
2023-04-15T20:05:58.722Z,101904.72
2023-04-15T20:08:26.284Z,101908.38
2023-04-15T20:10:53.909Z,101906.53
2023-04-15T20:13:21.601Z,101910.69
2023-04-15T20:15:49.504Z,101915.88
2023-04-15T20:18:17.134Z,101916.22
2023-04-15T20:20:46.393Z,101916.34
2023-04-15T20:23:14.020Z,101916.22
2023-04-15T20:25:43.037Z,101917.88
2023-04-15T20:28:10.728Z,101922.38
2023-04-15T20:30:39.406Z,101921.84
2023-04-15T20:33:08.115Z,101916.72
2023-04-15T20:35:35.895Z,101915.53
2023-04-15T20:38:05.611Z,101914.19
2023-04-15T20:40:33.793Z,101920.38
2023-04-15T20:43:01.471Z,101921.19
2023-04-15T20:45:29.106Z,101928.03
2023-04-15T20:47:56.799Z,101923.53
2023-04-15T20:50:24.394Z,101915.03
2023-04-15T20:52:51.998Z,101919.03
2023-04-15T20:55:21.558Z,101913.22
2023-04-15T20:57:49.376Z,101919.19
2023-04-15T21:00:17.240Z,101911.84
2023-04-15T21:02:44.863Z,101907.53
2023-04-15T21:05:12.813Z,101917.16
2023-04-15T21:07:40.977Z,101914.69
2023-04-15T21:10:09.057Z,101919.31
2023-04-15T21:12:40.761Z,101920.81
2023-04-15T21:15:09.381Z,101921.97
2023-04-15T21:17:37.007Z,101911.97
2023-04-15T21:20:05.116Z,101926.78
2023-04-15T21:22:33.314Z,101926.97
2023-04-15T21:25:00.956Z,101933.28
2023-04-15T21:27:28.552Z,101928.28
2023-04-15T21:29:57.485Z,101934.94
2023-04-15T21:32:25.077Z,101931.25
2023-04-15T21:34:52.677Z,101936.09
2023-04-15T21:37:20.264Z,101946.22
2023-04-15T21:39:47.868Z,101947.91
2023-04-15T21:42:15.635Z,101950.22
2023-04-15T21:44:43.237Z,101946.88
2023-04-15T21:47:12.285Z,101952.19
2023-04-15T21:49:39.982Z,101957.72
2023-04-15T21:52:07.584Z,101961.53
2023-04-15T21:54:37.911Z,101968.88
2023-04-15T21:57:05.511Z,101977.53
2023-04-15T21:59:33.115Z,101960.72
2023-04-15T22:02:00.846Z,101964.41
2023-04-15T22:04:29.994Z,101965.19
2023-04-15T22:07:01.532Z,101960.53
2023-04-15T22:09:29.702Z,101960.03
2023-04-15T22:11:59.213Z,101976.16
2023-04-15T22:14:26.933Z,101971.81
2023-04-15T22:16:55.085Z,101976.47
2023-04-15T22:19:22.899Z,101971.66
2023-04-15T22:21:52.191Z,101967.50
2023-04-15T22:24:39.260Z,101984.66
2023-04-15T22:27:07.448Z,101981.13
2023-04-15T22:29:35.767Z,101994.13
2023-04-15T22:32:03.353Z,101986.66
2023-04-15T22:34:30.948Z,101987.13
2023-04-15T22:36:59.920Z,101993.44
2023-04-15T22:39:27.618Z,101982.31
2023-04-15T22:41:56.662Z,101994.59
2023-04-15T22:44:24.255Z,101992.13
2023-04-15T22:46:51.993Z,101995.94
2023-04-15T22:49:19.758Z,101999.59
2023-04-15T22:51:47.384Z,101986.25
2023-04-15T22:54:16.342Z,101999.38
2023-04-15T22:56:43.892Z,101996.72
2023-04-15T22:59:11.626Z,101994.06
2023-04-15T23:01:39.474Z,102004.38
2023-04-15T23:04:23.766Z,102002.72
2023-04-15T23:06:54.380Z,102004.06
2023-04-15T23:09:23.490Z,102010.56
2023-04-15T23:11:51.108Z,102002.41
2023-04-15T23:14:18.702Z,102014.72
2023-04-15T23:16:46.369Z,102010.56
2023-04-15T23:19:14.001Z,102013.22
2023-04-15T23:21:41.589Z,101994.06
2023-04-15T23:24:09.712Z,102009.69
2023-04-15T23:26:38.642Z,102009.19
2023-04-15T23:29:06.363Z,102010.50
2023-04-15T23:31:34.058Z,102003.38
2023-04-15T23:34:01.752Z,102000.00
2023-04-15T23:36:29.358Z,101992.72
2023-04-15T23:38:56.958Z,102008.16
2023-04-15T23:41:24.577Z,102002.84
2023-04-15T23:43:53.504Z,102003.00
2023-04-15T23:46:21.075Z,102008.50
2023-04-15T23:48:49.082Z,102006.66
2023-04-15T23:51:17.934Z,102008.31
2023-04-15T23:53:46.186Z,102014.06
2023-04-15T23:56:13.849Z,102014.91
2023-04-15T23:58:41.477Z,102012.84
